Time;durP1;ratioP1;P1;durP2;ratioP2;P2;SDS_P1;SDS_P2;PMS_P1;PMS_P2;Temp;Humidity;BMP_temperature;BMP_pressure;BME280_temperature;BME280_humidity;BME280_pressure;Samples;Min_cycle;Max_cycle;Signal;HPM_P1;HPM_P2
2023/04/12 00:02:26;;;;;;;0.20;0.10;;;;;;;;;;4948844;28;20101;-82
2023/04/12 00:04:56;;;;;;;0.20;0.10;;;;;;;;;;4952269;28;20577;-83
2023/04/12 00:07:23;;;;;;;0.20;0.10;;;;;;;;;;4952126;28;20096;-82
2023/04/12 00:09:49;;;;;;;0.30;0.20;;;;;;;;;;4964007;28;20169;-82
2023/04/12 00:12:18;;;;;;;0.20;0.10;;;;;;;;;;4948190;28;20196;-84
2023/04/12 00:14:44;;;;;;;0.30;0.30;;;;;;;;;;4957169;28;20039;-84
2023/04/12 00:17:10;;;;;;;0.20;0.10;;;;;;;;;;4957430;28;20088;-81
2023/04/12 00:19:40;;;;;;;0.20;0.10;;;;;;;;;;4947372;28;20053;-81
2023/04/12 00:22:06;;;;;;;0.20;0.10;;;;;;;;;;4936759;28;20074;-84
2023/04/12 00:24:32;;;;;;;0.20;0.10;;;;;;;;;;4954214;28;20509;-83
2023/04/12 00:27:00;;;;;;;0.20;0.10;;;;;;;;;;4949677;28;20187;-82
2023/04/12 00:29:26;;;;;;;0.30;0.20;;;;;;;;;;4960211;28;20046;-85
2023/04/12 00:31:52;;;;;;;1.40;1.30;;;;;;;;;;4941709;28;20089;-84
2023/04/12 00:34:18;;;;;;;0.20;0.10;;;;;;;;;;4940229;28;20492;-82
2023/04/12 00:36:44;;;;;;;0.20;0.10;;;;;;;;;;4942447;28;20069;-83
2023/04/12 00:39:10;;;;;;;0.20;0.10;;;;;;;;;;4962461;28;20113;-82
2023/04/12 00:41:37;;;;;;;0.20;0.10;;;;;;;;;;4936182;28;20035;-80
2023/04/12 00:44:03;;;;;;;0.20;0.10;;;;;;;;;;4949062;28;20130;-82
2023/04/12 00:46:29;;;;;;;0.20;0.10;;;;;;;;;;4972995;28;20035;-82
2023/04/12 00:48:57;;;;;;;0.20;0.10;;;;;;;;;;4949975;28;20526;-85
2023/04/12 00:51:24;;;;;;;0.20;0.10;;;;;;;;;;4958820;28;20140;-82
2023/04/12 00:53:58;;;;;;;0.20;0.10;;;;;;;;;;4961411;28;20039;-87
2023/04/12 00:56:26;;;;;;;0.20;0.10;;;;;;;;;;4960086;28;20105;-82
2023/04/12 00:58:52;;;;;;;0.20;0.10;;;;;;;;;;4959207;28;20106;-83
2023/04/12 01:01:20;;;;;;;0.20;0.10;;;;;;;;;;4956399;28;20034;-83
2023/04/12 01:03:46;;;;;;;0.30;0.20;;;;;;;;;;4960233;28;20043;-83
2023/04/12 01:06:15;;;;;;;0.20;0.10;;;;;;;;;;4963263;28;20042;-86
2023/04/12 01:09:02;;;;;;;0.20;0.10;;;;;;;;;;4939109;28;20043;-83
2023/04/12 01:11:32;;;;;;;0.20;0.10;;;;;;;;;;4961898;28;20038;-84
2023/04/12 01:13:58;;;;;;;0.20;0.10;;;;;;;;;;4963798;28;20035;-81
2023/04/12 01:16:40;;;;;;;0.20;0.10;;;;;;;;;;4941501;28;20066;-83
2023/04/12 01:19:16;;;;;;;0.20;0.10;;;;;;;;;;4943347;28;20283;-85
2023/04/12 01:21:53;;;;;;;0.20;0.10;;;;;;;;;;4942621;28;20054;-84
2023/04/12 01:24:22;;;;;;;0.25;0.22;;;;;;;;;;4975382;28;20138;-81
2023/04/12 01:26:50;;;;;;;0.20;0.10;;;;;;;;;;4961015;28;20039;-84
2023/04/12 01:29:17;;;;;;;0.20;0.10;;;;;;;;;;4962928;28;20050;-85
2023/04/12 01:32:04;;;;;;;0.20;0.10;;;;;;;;;;4955087;28;20123;-83
2023/04/12 01:34:31;;;;;;;0.20;0.10;;;;;;;;;;4943750;28;20054;-84
2023/04/12 01:36:58;;;;;;;0.20;0.10;;;;;;;;;;4934221;28;20638;-83
2023/04/12 01:39:24;;;;;;;0.20;0.13;;;;;;;;;;4954852;28;20046;-83
2023/04/12 01:41:50;;;;;;;0.20;0.10;;;;;;;;;;4963804;28;20503;-85
2023/04/12 01:44:17;;;;;;;0.80;0.65;;;;;;;;;;4940092;28;20042;-82
2023/04/12 01:46:46;;;;;;;0.20;0.10;;;;;;;;;;4959974;28;20201;-85
2023/04/12 01:49:12;;;;;;;0.20;0.10;;;;;;;;;;4950028;28;20031;-86
2023/04/12 01:51:49;;;;;;;0.20;0.10;;;;;;;;;;4937703;28;20477;-85
2023/04/12 01:54:27;;;;;;;0.20;0.20;;;;;;;;;;4938670;28;20715;-83
2023/04/12 01:56:58;;;;;;;0.20;0.10;;;;;;;;;;4948039;28;20046;-85
2023/04/12 01:59:26;;;;;;;0.20;0.10;;;;;;;;;;4948768;28;20038;-84
2023/04/12 02:01:52;;;;;;;0.20;0.10;;;;;;;;;;4940946;28;20074;-81
2023/04/12 02:04:24;;;;;;;0.20;0.20;;;;;;;;;;4942574;28;20108;-82
2023/04/12 02:06:50;;;;;;;0.20;0.10;;;;;;;;;;4941344;28;20332;-80
2023/04/12 02:09:16;;;;;;;0.20;0.10;;;;;;;;;;4943011;28;20043;-82
2023/04/12 02:11:46;;;;;;;0.30;0.20;;;;;;;;;;4935597;28;20043;-84
2023/04/12 02:14:12;;;;;;;0.30;0.22;;;;;;;;;;4944760;28;20050;-81
2023/04/12 02:16:41;;;;;;;0.20;0.10;;;;;;;;;;4938325;28;20322;-79
2023/04/12 02:19:07;;;;;;;2.40;0.98;;;;;;;;;;4964573;28;20412;-81
2023/04/12 02:21:40;;;;;;;0.20;0.10;;;;;;;;;;4948287;28;20051;-84
2023/04/12 02:24:06;;;;;;;0.20;0.10;;;;;;;;;;4950645;28;20046;-83
2023/04/12 02:26:32;;;;;;;0.20;0.10;;;;;;;;;;4939904;28;20506;-83
2023/04/12 02:28:58;;;;;;;0.20;0.10;;;;;;;;;;4946427;28;20074;-82
2023/04/12 02:31:24;;;;;;;0.20;0.10;;;;;;;;;;4947980;28;20062;-82
2023/04/12 02:33:50;;;;;;;0.20;0.10;;;;;;;;;;4941547;28;20078;-80
2023/04/12 02:36:17;;;;;;;0.20;0.10;;;;;;;;;;4948601;28;20513;-80
2023/04/12 02:38:43;;;;;;;0.20;0.10;;;;;;;;;;4940294;28;20086;-81
2023/04/12 02:41:09;;;;;;;0.20;0.20;;;;;;;;;;4959055;28;20054;-83
2023/04/12 02:43:35;;;;;;;0.50;0.22;;;;;;;;;;4940002;28;20066;-82
2023/04/12 02:46:01;;;;;;;0.20;0.10;;;;;;;;;;4937797;28;20062;-83
2023/04/12 02:48:27;;;;;;;0.20;0.10;;;;;;;;;;4961640;28;20830;-84
2023/04/12 02:50:53;;;;;;;0.20;0.10;;;;;;;;;;4948282;28;20578;-84
2023/04/12 02:53:20;;;;;;;0.20;0.10;;;;;;;;;;4962811;28;20051;-80
2023/04/12 02:55:47;;;;;;;0.75;0.75;;;;;;;;;;4956111;28;20436;-83
2023/04/12 02:58:13;;;;;;;0.20;0.10;;;;;;;;;;4939168;28;20131;-83
2023/04/12 03:00:41;;;;;;;0.20;0.10;;;;;;;;;;4935424;28;20517;-82
2023/04/12 03:03:07;;;;;;;0.20;0.10;;;;;;;;;;4959048;28;20128;-84
2023/04/12 03:05:33;;;;;;;0.20;0.10;;;;;;;;;;4940695;28;20047;-81
2023/04/12 03:07:59;;;;;;;1.27;0.47;;;;;;;;;;4961707;28;20491;-83
2023/04/12 03:10:28;;;;;;;0.20;0.10;;;;;;;;;;4943798;28;20034;-83
2023/04/12 03:12:54;;;;;;;0.20;0.05;;;;;;;;;;4938277;28;20563;-80
2023/04/12 03:15:22;;;;;;;0.20;0.10;;;;;;;;;;4954004;28;20039;-83
2023/04/12 03:17:48;;;;;;;0.25;0.15;;;;;;;;;;4945829;28;20034;-85
2023/04/12 03:20:16;;;;;;;0.20;0.10;;;;;;;;;;4941989;28;21760;-80
2023/04/12 03:22:42;;;;;;;0.20;0.10;;;;;;;;;;4964293;28;20154;-83
2023/04/12 03:25:08;;;;;;;0.20;0.10;;;;;;;;;;4935844;28;20098;-82
2023/04/12 03:27:35;;;;;;;0.20;0.10;;;;;;;;;;4937103;28;20097;-83
2023/04/12 03:30:01;;;;;;;0.20;0.10;;;;;;;;;;4936070;28;20467;-81
2023/04/12 03:32:27;;;;;;;0.20;0.10;;;;;;;;;;4961237;28;20392;-81
2023/04/12 03:34:54;;;;;;;0.20;0.10;;;;;;;;;;4966601;28;20038;-81
2023/04/12 03:37:20;;;;;;;0.20;0.10;;;;;;;;;;4957006;28;20119;-84
2023/04/12 03:39:46;;;;;;;0.20;0.10;;;;;;;;;;4942676;28;20071;-84
2023/04/12 03:42:13;;;;;;;0.20;0.10;;;;;;;;;;4944456;28;20091;-84
2023/04/12 03:44:39;;;;;;;0.20;0.10;;;;;;;;;;4959895;28;20043;-84
2023/04/12 03:47:08;;;;;;;0.20;0.10;;;;;;;;;;4935112;28;20106;-82
2023/04/12 03:49:37;;;;;;;0.20;0.10;;;;;;;;;;4956985;28;20383;-83
2023/04/12 03:52:04;;;;;;;0.20;0.10;;;;;;;;;;4939226;28;20066;-82
2023/04/12 03:54:30;;;;;;;0.20;0.10;;;;;;;;;;4934466;28;20058;-81
2023/04/12 03:56:56;;;;;;;0.20;0.10;;;;;;;;;;4946424;28;20527;-85
2023/04/12 03:59:22;;;;;;;0.40;0.15;;;;;;;;;;4938704;28;20065;-82
2023/04/12 04:01:48;;;;;;;0.20;0.10;;;;;;;;;;4957110;28;20047;-81
2023/04/12 04:04:14;;;;;;;0.20;0.10;;;;;;;;;;4931914;28;20707;-82
2023/04/12 04:06:40;;;;;;;0.20;0.10;;;;;;;;;;4947933;28;20563;-82
2023/04/12 04:09:07;;;;;;;0.20;0.10;;;;;;;;;;4950375;28;20050;-83
2023/04/12 04:11:32;;;;;;;0.20;0.10;;;;;;;;;;4947782;28;20505;-82
2023/04/12 04:13:59;;;;;;;0.20;0.10;;;;;;;;;;4934594;28;20179;-83
2023/04/12 04:16:25;;;;;;;0.20;0.03;;;;;;;;;;4933508;28;20043;-83
2023/04/12 04:18:51;;;;;;;0.20;0.10;;;;;;;;;;4952115;28;20521;-80
2023/04/12 04:21:18;;;;;;;0.20;0.10;;;;;;;;;;4952728;28;20539;-84
2023/04/12 04:23:46;;;;;;;0.20;0.10;;;;;;;;;;4956319;28;20150;-82
2023/04/12 04:26:12;;;;;;;0.20;0.03;;;;;;;;;;4948785;28;20047;-82
2023/04/12 04:28:41;;;;;;;0.20;0.10;;;;;;;;;;4956087;28;20113;-83
2023/04/12 04:31:09;;;;;;;0.20;0.10;;;;;;;;;;4936787;28;20070;-88
2023/04/12 04:33:36;;;;;;;0.20;0.10;;;;;;;;;;4934833;28;20042;-85
2023/04/12 04:36:08;;;;;;;0.20;0.10;;;;;;;;;;4949342;28;20193;-83
2023/04/12 04:38:35;;;;;;;0.20;0.13;;;;;;;;;;4949159;28;20256;-84
2023/04/12 04:41:01;;;;;;;0.20;0.10;;;;;;;;;;4935561;28;20528;-84
2023/04/12 04:43:32;;;;;;;0.43;0.30;;;;;;;;;;4951905;28;20052;-82
2023/04/12 04:45:59;;;;;;;0.20;0.10;;;;;;;;;;4945280;28;20054;-82
2023/04/12 04:48:25;;;;;;;0.20;0.10;;;;;;;;;;4945517;28;20038;-85
2023/04/12 04:50:52;;;;;;;0.20;0.10;;;;;;;;;;4946781;28;20098;-82
2023/04/12 04:53:19;;;;;;;0.30;0.22;;;;;;;;;;4958359;28;20051;-82
2023/04/12 04:55:46;;;;;;;0.20;0.10;;;;;;;;;;4966535;28;20422;-84
2023/04/12 04:58:12;;;;;;;0.20;0.10;;;;;;;;;;4947456;28;20094;-84
2023/04/12 05:00:43;;;;;;;0.20;0.10;;;;;;;;;;4938816;28;20082;-82
2023/04/12 05:03:10;;;;;;;0.20;0.10;;;;;;;;;;4935499;28;20039;-84
2023/04/12 05:05:36;;;;;;;0.20;0.10;;;;;;;;;;4937875;28;20034;-80
2023/04/12 05:08:02;;;;;;;0.20;0.10;;;;;;;;;;4958511;28;20399;-82
2023/04/12 05:10:28;;;;;;;0.20;0.10;;;;;;;;;;4975934;28;20042;-83
2023/04/12 05:12:54;;;;;;;0.20;0.10;;;;;;;;;;4947110;28;20486;-82
2023/04/12 05:15:20;;;;;;;0.20;0.10;;;;;;;;;;4981125;23;20992;-83
2023/04/12 05:17:46;;;;;;;1.85;0.52;;;;;;;;;;4977810;28;20042;-80
2023/04/12 05:20:12;;;;;;;0.20;0.10;;;;;;;;;;4977766;28;20635;-82
2023/04/12 05:22:38;;;;;;;0.20;0.10;;;;;;;;;;4978241;28;20052;-83
2023/04/12 05:25:05;;;;;;;0.20;0.10;;;;;;;;;;4993339;28;20046;-82
2023/04/12 05:27:31;;;;;;;0.20;0.10;;;;;;;;;;4982111;28;20053;-81
2023/04/12 05:29:57;;;;;;;0.20;0.10;;;;;;;;;;4966008;28;20038;-83
2023/04/12 05:32:26;;;;;;;0.40;0.22;;;;;;;;;;4968824;28;20046;-80
2023/04/12 05:34:52;;;;;;;0.20;0.10;;;;;;;;;;4963547;28;20046;-80
2023/04/12 05:37:18;;;;;;;0.20;0.10;;;;;;;;;;4981442;28;20038;-80
2023/04/12 05:39:44;;;;;;;0.20;0.10;;;;;;;;;;4968848;28;20038;-79
2023/04/12 05:42:10;;;;;;;0.20;0.10;;;;;;;;;;4967625;28;20054;-81
2023/04/12 05:44:38;;;;;;;0.20;0.10;;;;;;;;;;4975426;28;20038;-83
2023/04/12 05:47:04;;;;;;;0.20;0.10;;;;;;;;;;4967701;28;20054;-80
2023/04/12 05:49:31;;;;;;;0.40;0.35;;;;;;;;;;4960409;28;20034;-78
2023/04/12 05:51:57;;;;;;;0.20;0.10;;;;;;;;;;4961300;28;20558;-82
2023/04/12 05:54:24;;;;;;;0.20;0.10;;;;;;;;;;4978032;28;20041;-80
2023/04/12 05:56:53;;;;;;;0.20;0.03;;;;;;;;;;4969419;28;20038;-80
2023/04/12 05:59:19;;;;;;;0.20;0.20;;;;;;;;;;4963503;28;20038;-78
2023/04/12 06:01:45;;;;;;;0.20;0.10;;;;;;;;;;4969895;28;20866;-79
2023/04/12 06:04:12;;;;;;;0.20;0.10;;;;;;;;;;4969742;28;20038;-78
2023/04/12 06:06:38;;;;;;;0.20;0.10;;;;;;;;;;4966643;28;20062;-81
2023/04/12 06:09:04;;;;;;;0.20;0.10;;;;;;;;;;4967066;28;20042;-79
2023/04/12 06:11:33;;;;;;;0.20;0.10;;;;;;;;;;4979711;28;20277;-82
2023/04/12 06:14:02;;;;;;;0.20;0.10;;;;;;;;;;4970931;28;20042;-82
2023/04/12 06:16:29;;;;;;;0.20;0.10;;;;;;;;;;4965611;28;20046;-80
2023/04/12 06:18:55;;;;;;;0.20;0.10;;;;;;;;;;4967542;28;20049;-82
2023/04/12 06:21:21;;;;;;;0.20;0.10;;;;;;;;;;4971163;28;20118;-82
2023/04/12 06:23:47;;;;;;;0.20;0.10;;;;;;;;;;4968518;28;20467;-79
2023/04/12 06:26:13;;;;;;;0.20;0.10;;;;;;;;;;4982287;28;20132;-79
2023/04/12 06:28:39;;;;;;;0.20;0.00;;;;;;;;;;4981643;28;20041;-80
2023/04/12 06:31:05;;;;;;;0.20;0.10;;;;;;;;;;4963555;28;20075;-81
2023/04/12 06:33:31;;;;;;;0.20;0.10;;;;;;;;;;4968498;28;20564;-82
2023/04/12 06:35:57;;;;;;;0.20;0.20;;;;;;;;;;4967484;28;20038;-83
2023/04/12 06:38:23;;;;;;;0.20;0.10;;;;;;;;;;4972157;28;20042;-80
2023/04/12 06:40:49;;;;;;;0.20;0.10;;;;;;;;;;4965974;28;20541;-80
2023/04/12 06:43:21;;;;;;;0.20;0.10;;;;;;;;;;4966540;28;20073;-80
2023/04/12 06:45:48;;;;;;;0.20;0.10;;;;;;;;;;4967421;28;20045;-80
2023/04/12 06:48:14;;;;;;;0.20;0.10;;;;;;;;;;4963498;28;20266;-80
2023/04/12 06:50:41;;;;;;;0.20;0.10;;;;;;;;;;4964379;28;20502;-80
2023/04/12 06:53:07;;;;;;;0.20;0.10;;;;;;;;;;4960598;28;20030;-80
2023/04/12 06:55:33;;;;;;;0.20;0.10;;;;;;;;;;4975009;28;20049;-80
2023/04/12 06:57:59;;;;;;;0.20;0.10;;;;;;;;;;4977297;28;20050;-84
2023/04/12 07:00:25;;;;;;;0.20;0.10;;;;;;;;;;4974509;28;20050;-81
2023/04/12 07:02:52;;;;;;;0.20;0.10;;;;;;;;;;4962907;28;20459;-79
2023/04/12 07:05:18;;;;;;;0.20;0.10;;;;;;;;;;4957457;28;20039;-81
2023/04/12 07:07:44;;;;;;;0.20;0.10;;;;;;;;;;4975826;28;21663;-80
2023/04/12 07:10:10;;;;;;;0.20;0.10;;;;;;;;;;4963540;28;20053;-81
2023/04/12 07:12:36;;;;;;;0.20;0.10;;;;;;;;;;4965286;28;20176;-82
2023/04/12 07:15:02;;;;;;;0.20;0.10;;;;;;;;;;4985176;28;20057;-81
2023/04/12 07:17:29;;;;;;;1.80;0.38;;;;;;;;;;4982836;28;20042;-80
2023/04/12 07:19:55;;;;;;;0.20;0.10;;;;;;;;;;4978742;28;20304;-81
2023/04/12 07:22:21;;;;;;;0.20;0.10;;;;;;;;;;4963807;28;20100;-80
2023/04/12 07:24:48;;;;;;;0.20;0.10;;;;;;;;;;4964565;28;20490;-81
2023/04/12 07:27:14;;;;;;;0.20;0.10;;;;;;;;;;4976923;28;20118;-81
2023/04/12 07:29:40;;;;;;;0.20;0.10;;;;;;;;;;4959121;28;20688;-81
2023/04/12 07:32:07;;;;;;;0.20;0.10;;;;;;;;;;4965562;28;20505;-82
2023/04/12 07:34:33;;;;;;;0.20;0.10;;;;;;;;;;4980143;28;20562;-80
2023/04/12 07:36:59;;;;;;;0.20;0.10;;;;;;;;;;4962800;28;20515;-80
2023/04/12 07:39:26;;;;;;;0.20;0.10;;;;;;;;;;4976897;28;20047;-81
2023/04/12 07:41:52;;;;;;;0.20;0.10;;;;;;;;;;4966499;28;20499;-80
2023/04/12 07:44:18;;;;;;;0.20;0.10;;;;;;;;;;4968487;28;20038;-81
2023/04/12 07:46:45;;;;;;;0.20;0.10;;;;;;;;;;4962946;28;20089;-81
2023/04/12 07:49:11;;;;;;;0.20;0.10;;;;;;;;;;4981639;28;21151;-81
2023/04/12 07:51:37;;;;;;;0.20;0.10;;;;;;;;;;4980004;28;20153;-81
2023/04/12 07:54:03;;;;;;;0.20;0.10;;;;;;;;;;4982118;28;20415;-82
2023/04/12 07:56:29;;;;;;;0.20;0.20;;;;;;;;;;4978266;28;20044;-82
2023/04/12 07:58:55;;;;;;;0.20;0.10;;;;;;;;;;4964786;28;20061;-80
2023/04/12 08:01:21;;;;;;;0.20;0.10;;;;;;;;;;4978407;28;20046;-83
2023/04/12 08:03:47;;;;;;;0.20;0.10;;;;;;;;;;4981954;28;20073;-81
2023/04/12 08:06:13;;;;;;;0.20;0.10;;;;;;;;;;4982418;28;20094;-83
2023/04/12 08:08:40;;;;;;;0.20;0.10;;;;;;;;;;4987912;28;20101;-82
2023/04/12 08:11:06;;;;;;;0.20;0.10;;;;;;;;;;4980633;28;20530;-84
2023/04/12 08:13:32;;;;;;;0.20;0.10;;;;;;;;;;4983519;28;20045;-82
2023/04/12 08:15:58;;;;;;;0.20;0.10;;;;;;;;;;4989897;28;20187;-82
2023/04/12 08:18:24;;;;;;;0.20;0.10;;;;;;;;;;4972683;28;20509;-82
2023/04/12 08:20:51;;;;;;;0.20;0.10;;;;;;;;;;4971909;28;20288;-81
2023/04/12 08:23:17;;;;;;;0.20;0.10;;;;;;;;;;4983782;28;20049;-81
2023/04/12 08:25:43;;;;;;;0.20;0.10;;;;;;;;;;4994573;28;20074;-84
2023/04/12 08:28:09;;;;;;;0.20;0.10;;;;;;;;;;4977309;28;20050;-82
2023/04/12 08:30:36;;;;;;;0.20;0.10;;;;;;;;;;4996106;28;20046;-82
2023/04/12 08:33:02;;;;;;;0.20;0.10;;;;;;;;;;4984032;28;20727;-80
2023/04/12 08:35:28;;;;;;;0.20;0.10;;;;;;;;;;4982434;28;20117;-83
2023/04/12 08:37:54;;;;;;;0.20;0.10;;;;;;;;;;4995485;28;20098;-82
2023/04/12 08:40:20;;;;;;;0.30;0.25;;;;;;;;;;4982516;28;20042;-81
2023/04/12 08:42:46;;;;;;;0.20;0.10;;;;;;;;;;4989919;28;20404;-80
2023/04/12 08:45:13;;;;;;;0.20;0.13;;;;;;;;;;4971038;28;20046;-80
2023/04/12 08:47:40;;;;;;;0.20;0.10;;;;;;;;;;4989268;28;20111;-80
2023/04/12 08:50:11;;;;;;;0.20;0.00;;;;;;;;;;4972749;28;20051;-83
2023/04/12 08:52:38;;;;;;;0.20;0.00;;;;;;;;;;4983228;28;20133;-80
2023/04/12 08:55:04;;;;;;;0.20;0.10;;;;;;;;;;4974058;28;20046;-81
2023/04/12 08:57:34;;;;;;;0.20;0.10;;;;;;;;;;4990277;28;20304;-82
2023/04/12 09:00:00;;;;;;;0.20;0.10;;;;;;;;;;4985224;28;20068;-82
2023/04/12 09:02:27;;;;;;;0.20;0.20;;;;;;;;;;4966290;28;20050;-82
2023/04/12 09:04:53;;;;;;;0.20;0.10;;;;;;;;;;4965855;28;20038;-82
2023/04/12 09:07:22;;;;;;;0.20;0.10;;;;;;;;;;4983943;28;20112;-81
2023/04/12 09:09:48;;;;;;;0.20;0.10;;;;;;;;;;4986235;28;20399;-81
2023/04/12 09:12:14;;;;;;;0.20;0.10;;;;;;;;;;4986022;28;20044;-81
2023/04/12 09:14:44;;;;;;;0.20;0.10;;;;;;;;;;4986738;28;20511;-81
2023/04/12 09:17:23;;;;;;;0.20;0.10;;;;;;;;;;4982986;28;20046;-82
2023/04/12 09:19:50;;;;;;;0.20;0.10;;;;;;;;;;4982422;28;20042;-81
2023/04/12 09:22:16;;;;;;;0.20;0.10;;;;;;;;;;4965658;28;20066;-81
2023/04/12 09:24:46;;;;;;;0.20;0.10;;;;;;;;;;4982286;28;20415;-82
2023/04/12 09:27:12;;;;;;;0.20;0.10;;;;;;;;;;4968787;28;20031;-82
2023/04/12 09:29:38;;;;;;;0.20;0.10;;;;;;;;;;4968274;28;20034;-81
2023/04/12 09:32:06;;;;;;;0.20;0.20;;;;;;;;;;4986037;28;20297;-82
2023/04/12 09:34:34;;;;;;;0.20;0.10;;;;;;;;;;4981299;28;20643;-81
2023/04/12 09:37:11;;;;;;;0.20;0.10;;;;;;;;;;4982591;28;20053;-81
2023/04/12 09:39:37;;;;;;;0.20;0.10;;;;;;;;;;4976762;28;20051;-81
2023/04/12 09:42:04;;;;;;;0.20;0.10;;;;;;;;;;4984388;28;20042;-82
2023/04/12 09:44:30;;;;;;;0.20;0.10;;;;;;;;;;4984388;28;20150;-82
2023/04/12 09:46:59;;;;;;;0.20;0.10;;;;;;;;;;4971408;28;20128;-81
2023/04/12 09:49:44;;;;;;;0.20;0.10;;;;;;;;;;4977518;28;20054;-81
2023/04/12 09:52:11;;;;;;;0.20;0.10;;;;;;;;;;4970850;28;20089;-81
2023/04/12 09:54:41;;;;;;;0.20;0.10;;;;;;;;;;4982959;28;20050;-80
2023/04/12 09:57:08;;;;;;;6.95;0.52;;;;;;;;;;4979487;28;20038;-80
2023/04/12 09:59:38;;;;;;;0.20;0.10;;;;;;;;;;4966366;28;20100;-82
2023/04/12 10:02:14;;;;;;;0.20;0.00;;;;;;;;;;4986636;28;20046;-80
2023/04/12 10:04:40;;;;;;;0.20;0.10;;;;;;;;;;4986254;28;20057;-80
2023/04/12 10:07:06;;;;;;;0.20;0.10;;;;;;;;;;4971367;28;20046;-81
2023/04/12 10:09:33;;;;;;;0.20;0.10;;;;;;;;;;4967238;28;20039;-81
2023/04/12 10:12:02;;;;;;;0.88;0.82;;;;;;;;;;4969723;28;20038;-79
2023/04/12 10:14:28;;;;;;;0.20;0.10;;;;;;;;;;4986379;28;20053;-81
2023/04/12 10:16:58;;;;;;;0.43;0.43;;;;;;;;;;4972410;28;20041;-79
2023/04/12 10:19:25;;;;;;;0.20;0.10;;;;;;;;;;4984961;28;20468;-81
2023/04/12 10:21:51;;;;;;;0.20;0.10;;;;;;;;;;4986331;28;20061;-79
2023/04/12 10:24:17;;;;;;;0.20;0.10;;;;;;;;;;4986372;28;20038;-83
2023/04/12 10:26:44;;;;;;;0.35;0.10;;;;;;;;;;4980197;28;22496;-79
2023/04/12 10:29:26;;;;;;;0.20;0.10;;;;;;;;;;4969025;28;20076;-81
2023/04/12 10:31:53;;;;;;;0.30;0.25;;;;;;;;;;4983764;28;20572;-79
2023/04/12 10:34:23;;;;;;;0.20;0.10;;;;;;;;;;4985439;28;20054;-82
2023/04/12 10:36:52;;;;;;;0.32;0.20;;;;;;;;;;4973554;28;20462;-81
2023/04/12 10:39:34;;;;;;;0.20;0.10;;;;;;;;;;4975150;28;20061;-84
2023/04/12 10:42:19;;;;;;;0.20;0.00;;;;;;;;;;4968990;28;20050;-83
2023/04/12 10:44:45;;;;;;;0.20;0.10;;;;;;;;;;4980402;28;20089;-82
2023/04/12 10:47:11;;;;;;;0.35;0.20;;;;;;;;;;4963983;28;20101;-83
2023/04/12 10:49:38;;;;;;;0.20;0.10;;;;;;;;;;4963286;28;20439;-83
2023/04/12 10:52:04;;;;;;;0.20;0.10;;;;;;;;;;4967013;28;20692;-80
2023/04/12 10:54:30;;;;;;;0.32;0.32;;;;;;;;;;4982080;28;20542;-84
2023/04/12 10:56:56;;;;;;;0.20;0.10;;;;;;;;;;4983099;28;20065;-84
2023/04/12 10:59:22;;;;;;;0.20;0.20;;;;;;;;;;4963099;28;20443;-85
2023/04/12 11:02:06;;;;;;;0.20;0.10;;;;;;;;;;4981628;28;20093;-84
2023/04/12 11:04:32;;;;;;;0.20;0.10;;;;;;;;;;4966017;28;20042;-82
2023/04/12 11:07:01;;;;;;;0.20;0.10;;;;;;;;;;4978950;28;20052;-82
2023/04/12 11:09:34;;;;;;;0.20;0.10;;;;;;;;;;4982079;28;20224;-83
2023/04/12 11:12:06;;;;;;;0.20;0.10;;;;;;;;;;4969131;28;20049;-84
2023/04/12 11:14:35;;;;;;;0.20;0.10;;;;;;;;;;4969164;28;20177;-84
2023/04/12 11:17:16;;;;;;;0.20;0.10;;;;;;;;;;4984551;23;20156;-84
2023/04/12 11:19:46;;;;;;;0.28;0.20;;;;;;;;;;4981139;28;20430;-81
2023/04/12 11:22:20;;;;;;;0.20;0.10;;;;;;;;;;4995725;28;20526;-85
2023/04/12 11:24:46;;;;;;;0.20;0.10;;;;;;;;;;4977958;28;20050;-83
2023/04/12 11:27:16;;;;;;;0.20;0.10;;;;;;;;;;4986112;28;20073;-83
2023/04/12 11:29:45;;;;;;;0.20;0.10;;;;;;;;;;5000877;28;20157;-83
2023/04/12 11:32:15;;;;;;;0.22;0.22;;;;;;;;;;4979889;28;20275;-79
2023/04/12 11:34:42;;;;;;;0.20;0.10;;;;;;;;;;4985046;28;20033;-81
2023/04/12 11:37:09;;;;;;;0.20;0.10;;;;;;;;;;4986894;28;20114;-79
2023/04/12 11:39:36;;;;;;;0.20;0.08;;;;;;;;;;4986188;28;20042;-82
2023/04/12 11:42:02;;;;;;;0.20;0.10;;;;;;;;;;4978268;28;20666;-84
2023/04/12 11:44:28;;;;;;;0.20;0.10;;;;;;;;;;4984257;28;20038;-82
2023/04/12 11:46:54;;;;;;;0.20;0.10;;;;;;;;;;5006682;28;20037;-82
2023/04/12 11:49:23;;;;;;;0.20;0.20;;;;;;;;;;5001209;28;20041;-82
2023/04/12 11:51:50;;;;;;;0.20;0.10;;;;;;;;;;4990538;28;20045;-80
2023/04/12 11:54:16;;;;;;;0.20;0.10;;;;;;;;;;4985985;28;20034;-81
2023/04/12 11:56:42;;;;;;;0.20;0.00;;;;;;;;;;4985986;28;20036;-83
2023/04/12 11:59:08;;;;;;;0.20;0.10;;;;;;;;;;4980798;28;20034;-81
2023/04/12 12:01:34;;;;;;;0.20;0.10;;;;;;;;;;4999484;28;20173;-84
2023/04/12 12:04:01;;;;;;;0.20;0.10;;;;;;;;;;4984466;28;20038;-82
2023/04/12 12:06:27;;;;;;;0.20;0.10;;;;;;;;;;4980138;28;20046;-85
2023/04/12 12:08:54;;;;;;;0.20;0.10;;;;;;;;;;4989781;28;20038;-83
2023/04/12 12:11:21;;;;;;;0.20;0.10;;;;;;;;;;4988999;28;20369;-83
2023/04/12 12:13:47;;;;;;;0.20;0.10;;;;;;;;;;4985417;28;20061;-82
2023/04/12 12:16:15;;;;;;;0.20;0.10;;;;;;;;;;5004326;28;20133;-84
2023/04/12 12:18:42;;;;;;;0.20;0.10;;;;;;;;;;5000679;28;20066;-84
2023/04/12 12:21:09;;;;;;;0.35;0.28;;;;;;;;;;4996134;28;20100;-84
2023/04/12 12:23:36;;;;;;;0.20;0.10;;;;;;;;;;4987782;28;20093;-83
2023/04/12 12:26:08;;;;;;;0.20;0.20;;;;;;;;;;5002651;28;20514;-83
2023/04/12 12:28:38;;;;;;;0.20;0.10;;;;;;;;;;4985321;28;20041;-83
2023/04/12 12:31:09;;;;;;;0.20;0.10;;;;;;;;;;5000819;28;20469;-84
2023/04/12 12:33:39;;;;;;;0.20;0.10;;;;;;;;;;4983505;28;20049;-83
2023/04/12 12:36:08;;;;;;;0.20;0.10;;;;;;;;;;4999020;28;20120;-83
2023/04/12 12:38:39;;;;;;;0.20;0.10;;;;;;;;;;4985550;28;20042;-86
2023/04/12 12:41:21;;;;;;;0.20;0.15;;;;;;;;;;4998620;28;20038;-86
2023/04/12 12:43:48;;;;;;;0.20;0.10;;;;;;;;;;4983654;28;20049;-83
2023/04/12 12:46:14;;;;;;;0.20;0.10;;;;;;;;;;4982243;28;20038;-84
2023/04/12 12:48:43;;;;;;;0.20;0.05;;;;;;;;;;4983992;28;20077;-86
2023/04/12 12:51:10;;;;;;;0.20;0.10;;;;;;;;;;4999950;28;20042;-88
2023/04/12 12:53:40;;;;;;;0.20;0.10;;;;;;;;;;4987602;28;20100;-86
2023/04/12 12:56:09;;;;;;;0.20;0.10;;;;;;;;;;5000211;28;20053;-87
2023/04/12 12:58:36;;;;;;;0.20;0.10;;;;;;;;;;5003045;28;20314;-86
2023/04/12 13:01:03;;;;;;;0.20;0.10;;;;;;;;;;4989346;28;20038;-84
2023/04/12 13:03:29;;;;;;;0.30;0.30;;;;;;;;;;5000961;28;20120;-83
2023/04/12 13:05:56;;;;;;;0.20;0.10;;;;;;;;;;5002196;28;20066;-82
2023/04/12 13:08:22;;;;;;;0.20;0.10;;;;;;;;;;4990716;28;20449;-84
2023/04/12 13:10:51;;;;;;;0.20;0.00;;;;;;;;;;4985357;28;20332;-84
2023/04/12 13:13:17;;;;;;;0.20;0.10;;;;;;;;;;4984114;28;20042;-88
2023/04/12 13:15:45;;;;;;;0.20;0.10;;;;;;;;;;5006673;28;20042;-82
2023/04/12 13:18:14;;;;;;;0.20;0.10;;;;;;;;;;5000571;28;20048;-86
2023/04/12 13:20:41;;;;;;;0.52;0.47;;;;;;;;;;4986045;28;20046;-82
2023/04/12 13:23:11;;;;;;;0.20;0.10;;;;;;;;;;4989055;28;20061;-86
2023/04/12 13:25:38;;;;;;;0.20;0.00;;;;;;;;;;5002623;28;20073;-83
2023/04/12 13:28:06;;;;;;;0.20;0.10;;;;;;;;;;5001616;28;20040;-83
2023/04/12 13:30:32;;;;;;;0.20;0.10;;;;;;;;;;4982108;28;20046;-81
2023/04/12 13:32:58;;;;;;;0.20;0.10;;;;;;;;;;5003472;28;20087;-84
2023/04/12 13:35:39;;;;;;;0.20;0.10;;;;;;;;;;5000935;28;20493;-86
2023/04/12 13:38:05;;;;;;;0.20;0.10;;;;;;;;;;4999839;28;20113;-84
2023/04/12 13:40:34;;;;;;;0.20;0.20;;;;;;;;;;5000100;28;20192;-84
2023/04/12 13:43:05;;;;;;;0.20;0.10;;;;;;;;;;4995359;28;20047;-84
2023/04/12 13:45:55;;;;;;;0.20;0.10;;;;;;;;;;4980500;28;20058;-84
2023/04/12 13:48:22;;;;;;;0.20;0.10;;;;;;;;;;4997291;28;20046;-84
2023/04/12 13:50:48;;;;;;;0.55;0.47;;;;;;;;;;4997268;28;20262;-84
2023/04/12 13:53:14;;;;;;;0.20;0.10;;;;;;;;;;4997103;28;20503;-83
2023/04/12 13:55:52;;;;;;;0.20;0.10;;;;;;;;;;4978916;28;20041;-84
2023/04/12 13:58:18;;;;;;;0.20;0.10;;;;;;;;;;4982653;28;20137;-83
2023/04/12 14:00:44;;;;;;;0.20;0.10;;;;;;;;;;4976258;28;20042;-82
2023/04/12 14:03:13;;;;;;;0.20;0.10;;;;;;;;;;4984485;28;20044;-86
2023/04/12 14:05:39;;;;;;;0.20;0.10;;;;;;;;;;4985507;28;20084;-82
2023/04/12 14:08:05;;;;;;;0.20;0.17;;;;;;;;;;5000780;28;20076;-83
2023/04/12 14:10:31;;;;;;;0.20;0.10;;;;;;;;;;4985410;28;20050;-83
2023/04/12 14:12:57;;;;;;;0.20;0.10;;;;;;;;;;4983765;28;20037;-84
2023/04/12 14:15:23;;;;;;;0.20;0.10;;;;;;;;;;4999825;28;20132;-85
2023/04/12 14:17:49;;;;;;;0.20;0.10;;;;;;;;;;4998900;28;20406;-84
2023/04/12 14:20:15;;;;;;;0.20;0.05;;;;;;;;;;4981041;28;20498;-83
2023/04/12 14:22:41;;;;;;;0.20;0.10;;;;;;;;;;4985404;28;20030;-84
2023/04/12 14:25:13;;;;;;;0.20;0.10;;;;;;;;;;4999856;28;20132;-83
2023/04/12 14:27:45;;;;;;;0.20;0.10;;;;;;;;;;4982058;28;20038;-80
2023/04/12 14:30:15;;;;;;;0.20;0.10;;;;;;;;;;4999259;28;20046;-81
2023/04/12 14:32:41;;;;;;;0.20;0.10;;;;;;;;;;5005951;28;20069;-82
2023/04/12 14:35:08;;;;;;;0.20;0.10;;;;;;;;;;4999708;28;20046;-81
2023/04/12 14:37:34;;;;;;;0.20;0.10;;;;;;;;;;5005531;28;20069;-85
2023/04/12 14:40:05;;;;;;;0.20;0.10;;;;;;;;;;5002922;28;20037;-87
2023/04/12 14:42:34;;;;;;;0.20;0.10;;;;;;;;;;4993507;28;20053;-85
2023/04/12 14:45:00;;;;;;;0.20;0.10;;;;;;;;;;4998071;28;20041;-83
2023/04/12 14:47:26;;;;;;;0.20;0.10;;;;;;;;;;4983741;28;20057;-84